Startpagina
METAR-TAF:

METAR-TAF

Vliegvelden :

Julius Nyerere International Airport

Dar es Salaam, Tanzania

breedte: 06-52S, lengte: 039-12E, hoogte: 55 m

Actueel weer

Dit bericht is 3 uur en het 8 minuten geleden gemaakt, om 19:00 UTC
Wind 5 kt uit het zuiden
Temperatuur 22°C
Vochtigheid 83%
Druk 1019 hPa
Zicht 10 km of meer
Weinig wolken op 1300 ft

METAR: HTDA 161900Z 18005KT 9999 FEW013 22/19 Q1019 NOSIG

Tijdstip: 01:08 (22:08 UTC)

Verwachting

Dit bericht is 5 uur en het 8 minuten geleden gemaakt, om 17:00 UTC
Verwachting geldig van 16 om 18 UTC tot 17 om 24 UTC
Wind 5 kt uit het oostzuidoosten
Zicht 10 km of meer
Weinig wolken op 2000 ft
Wijzigt naar
van 17 om 07 UTC tot 17 om 10 UTC
Wind 15 kt uit het zuidzuidwesten
Zicht 10 km of meer
Gebroken wolken op 1200 ft

TAF: HTDA 161700Z 1618/1724 12005KT 9999 FEW020 BECMG 1707/1710 20015KT 9999 BKN012

Waarnemingen en weersverwachtingen van meer dan 4000 vliegvelden (METAR en TAF).

De beschikbare stations zijn de gele en rode punten op de kaart.

Ga met uw muis naar het station om de naam te zien.

Klik dan om waarnemingen en weersverwachtingen te zien.

kaart wijzigen: klik op de groene knoppen met een zwart kruis om in te zoomen, op de groene knop met een streepje om uit te zoomen of op de groene pijlen voor aangrenzende kaarten.


METAR-TAF: